createdAt,value
2023-06-26T00:01:53.568Z,72.12
2023-06-26T00:04:25.635Z,71.90
2023-06-26T00:06:57.781Z,72.38
2023-06-26T00:09:30.047Z,72.41
2023-06-26T00:12:02.221Z,73.00
2023-06-26T00:14:34.323Z,72.99
2023-06-26T00:17:06.653Z,72.53
2023-06-26T00:19:38.718Z,72.12
2023-06-26T00:22:10.920Z,71.91
2023-06-26T00:24:43.039Z,71.97
2023-06-26T00:27:15.324Z,71.76
2023-06-26T00:29:47.442Z,71.68
2023-06-26T00:32:19.518Z,71.79
2023-06-26T00:34:51.654Z,71.80
2023-06-26T00:37:24.319Z,71.54
2023-06-26T00:39:56.400Z,71.46
2023-06-26T00:42:28.989Z,71.65
2023-06-26T00:45:01.027Z,71.74
2023-06-26T00:47:33.845Z,71.91
2023-06-26T00:50:06.883Z,71.91
2023-06-26T00:52:39.788Z,71.94
2023-06-26T00:55:12.953Z,72.35
2023-06-26T00:57:47.073Z,72.52
2023-06-26T01:00:20.484Z,72.40
2023-06-26T01:02:52.976Z,72.22
2023-06-26T01:05:26.148Z,72.23
2023-06-26T01:07:59.394Z,72.20
2023-06-26T01:10:31.624Z,72.10
2023-06-26T01:13:03.757Z,72.27
2023-06-26T01:15:36.160Z,72.46
2023-06-26T01:18:09.269Z,72.67
2023-06-26T01:20:43.853Z,72.42
2023-06-26T01:23:24.646Z,73.00
2023-06-26T01:26:12.745Z,73.52
2023-06-26T01:28:44.582Z,73.72
2023-06-26T01:31:17.638Z,74.54
2023-06-26T01:33:51.964Z,74.96
2023-06-26T01:36:26.066Z,74.63
2023-06-26T01:38:58.247Z,74.51
2023-06-26T01:41:30.465Z,74.54
2023-06-26T01:44:12.037Z,74.50
2023-06-26T01:46:57.442Z,74.33
2023-06-26T01:49:38.455Z,74.74
2023-06-26T01:52:19.238Z,74.88
2023-06-26T01:54:59.175Z,74.67
2023-06-26T01:57:34.325Z,74.63
2023-06-26T02:00:11.369Z,74.76
2023-06-26T02:02:46.457Z,74.93
2023-06-26T02:05:19.702Z,74.88
2023-06-26T02:07:52.480Z,74.74
2023-06-26T02:10:24.679Z,74.85
2023-06-26T02:12:56.826Z,74.74
2023-06-26T02:15:29.130Z,75.23
2023-06-26T02:18:01.368Z,74.98
2023-06-26T02:20:34.568Z,75.18
2023-06-26T02:23:06.758Z,75.23
2023-06-26T02:25:39.457Z,75.16
2023-06-26T02:28:11.855Z,75.28
2023-06-26T02:30:44.145Z,76.07
2023-06-26T02:33:16.805Z,76.03
2023-06-26T02:35:49.029Z,75.66
2023-06-26T02:38:21.575Z,75.54
2023-06-26T02:40:53.970Z,75.29
2023-06-26T02:43:26.629Z,75.57
2023-06-26T02:45:58.769Z,75.43
2023-06-26T02:48:30.922Z,75.42
2023-06-26T02:51:03.050Z,75.58
2023-06-26T02:53:37.432Z,75.60
2023-06-26T02:56:10.914Z,75.70
2023-06-26T02:58:43.165Z,75.82
2023-06-26T03:01:17.817Z,75.51
2023-06-26T03:03:50.748Z,75.42
2023-06-26T03:06:23.350Z,75.40
2023-06-26T03:08:55.950Z,75.51
2023-06-26T03:11:28.088Z,75.40
2023-06-26T03:14:01.158Z,75.49
2023-06-26T03:16:33.678Z,75.35
2023-06-26T03:19:05.828Z,75.47
2023-06-26T03:21:43.665Z,75.31
2023-06-26T03:24:15.792Z,75.26
2023-06-26T03:26:48.034Z,75.01
2023-06-26T03:29:20.168Z,75.14
2023-06-26T03:31:52.492Z,74.86
2023-06-26T03:34:25.301Z,75.00
2023-06-26T03:36:57.420Z,75.38
2023-06-26T03:39:29.633Z,75.53
2023-06-26T03:42:02.855Z,75.30
2023-06-26T03:44:35.192Z,75.20
2023-06-26T03:47:07.730Z,75.68
2023-06-26T03:49:41.448Z,76.04
2023-06-26T03:52:13.545Z,76.24
2023-06-26T03:54:45.818Z,77.24
2023-06-26T03:57:18.062Z,77.11
2023-06-26T03:59:52.984Z,78.19
2023-06-26T04:02:25.322Z,79.19
2023-06-26T04:04:57.577Z,79.20
2023-06-26T04:07:31.272Z,78.06
2023-06-26T04:10:05.129Z,79.50
2023-06-26T04:12:37.411Z,79.65
2023-06-26T04:15:11.480Z,79.14
2023-06-26T04:17:43.558Z,79.91
2023-06-26T04:20:16.474Z,78.43
2023-06-26T04:22:48.660Z,78.90
2023-06-26T04:25:20.921Z,79.55
2023-06-26T04:27:53.038Z,79.93
2023-06-26T04:30:25.220Z,79.20
2023-06-26T04:33:00.262Z,79.12
2023-06-26T04:35:32.428Z,78.86
2023-06-26T04:38:04.660Z,79.76
2023-06-26T04:40:37.016Z,79.32
2023-06-26T04:43:09.496Z,79.20
2023-06-26T04:45:41.907Z,79.48
2023-06-26T04:48:14.072Z,78.66
2023-06-26T04:50:55.158Z,78.53
2023-06-26T04:53:28.026Z,78.55
2023-06-26T04:56:00.299Z,78.46
2023-06-26T04:58:32.521Z,78.83
2023-06-26T05:01:08.191Z,78.65
2023-06-26T05:03:40.534Z,78.11
2023-06-26T05:06:12.881Z,77.85
2023-06-26T05:08:45.008Z,77.92
2023-06-26T05:11:17.227Z,77.55
2023-06-26T05:13:49.311Z,77.93
2023-06-26T05:16:21.554Z,77.29
2023-06-26T05:18:55.519Z,77.17
2023-06-26T05:21:28.058Z,77.23
2023-06-26T05:24:01.190Z,76.80
2023-06-26T05:26:34.523Z,76.56
2023-06-26T05:29:07.598Z,76.46
2023-06-26T05:31:44.010Z,76.38
2023-06-26T05:34:17.636Z,75.90
2023-06-26T05:36:52.807Z,75.71
2023-06-26T05:39:26.101Z,76.63
2023-06-26T05:41:59.358Z,76.26
2023-06-26T05:44:31.445Z,75.57
2023-06-26T05:47:03.653Z,75.28
2023-06-26T05:49:35.894Z,74.71
2023-06-26T05:52:10.228Z,74.41
2023-06-26T05:54:43.322Z,73.72
2023-06-26T05:57:17.706Z,73.37
2023-06-26T05:59:51.204Z,73.67
2023-06-26T06:02:23.673Z,73.06
2023-06-26T06:04:56.006Z,73.00
2023-06-26T06:07:28.318Z,72.65
2023-06-26T06:10:00.983Z,72.19
2023-06-26T06:12:33.177Z,71.54
2023-06-26T06:15:05.336Z,71.27
2023-06-26T06:17:37.670Z,70.98
2023-06-26T06:20:10.876Z,71.25
2023-06-26T06:22:42.955Z,70.97
2023-06-26T06:25:15.236Z,70.35
2023-06-26T06:27:48.577Z,70.25
2023-06-26T06:30:35.171Z,69.58
2023-06-26T06:33:12.926Z,68.73
2023-06-26T06:35:45.683Z,68.39
2023-06-26T06:38:18.163Z,68.29
2023-06-26T06:40:50.525Z,67.74
2023-06-26T06:43:22.716Z,67.41
2023-06-26T06:45:55.196Z,66.93
2023-06-26T06:48:28.353Z,67.14
2023-06-26T06:51:00.565Z,66.75
2023-06-26T06:53:33.203Z,66.21
2023-06-26T06:56:05.734Z,65.62
2023-06-26T06:58:38.017Z,65.33
2023-06-26T07:01:10.614Z,64.95
2023-06-26T07:03:43.077Z,64.92
2023-06-26T07:06:15.779Z,64.32
2023-06-26T07:08:47.851Z,63.58
2023-06-26T07:11:20.223Z,62.62
2023-06-26T07:13:52.910Z,62.25
2023-06-26T07:16:25.029Z,62.09
2023-06-26T07:18:57.173Z,60.81
2023-06-26T07:21:29.234Z,61.08
2023-06-26T07:24:01.300Z,59.45
2023-06-26T07:26:44.405Z,60.44
2023-06-26T07:29:18.068Z,60.06
2023-06-26T07:31:50.395Z,59.95
2023-06-26T07:34:22.610Z,59.46
2023-06-26T07:36:55.284Z,59.63
2023-06-26T07:39:27.451Z,58.50
2023-06-26T07:42:01.021Z,58.12
2023-06-26T07:44:33.128Z,56.53
2023-06-26T07:47:05.688Z,56.29
2023-06-26T07:49:38.016Z,56.13
2023-06-26T07:52:11.750Z,55.33
2023-06-26T07:54:43.845Z,55.77
2023-06-26T07:57:16.264Z,54.93
2023-06-26T07:59:49.102Z,53.87
2023-06-26T08:02:21.230Z,53.24
2023-06-26T08:04:53.658Z,52.60
2023-06-26T08:07:25.945Z,52.26
2023-06-26T08:09:58.417Z,51.22
2023-06-26T08:12:30.601Z,51.57
2023-06-26T08:15:04.164Z,51.18
2023-06-26T08:17:37.096Z,50.29
2023-06-26T08:20:12.058Z,49.50
2023-06-26T08:22:45.810Z,49.04
2023-06-26T08:25:18.229Z,49.30
2023-06-26T08:27:53.959Z,48.39
2023-06-26T08:30:29.334Z,47.04
2023-06-26T08:33:02.081Z,46.81
2023-06-26T08:35:34.425Z,46.48
2023-06-26T08:38:06.549Z,45.83
2023-06-26T08:40:40.021Z,46.03
2023-06-26T08:43:12.482Z,44.37
2023-06-26T08:45:44.816Z,43.98
2023-06-26T08:48:17.269Z,44.33
2023-06-26T08:50:51.591Z,44.51
2023-06-26T08:53:31.581Z,44.73
2023-06-26T08:56:05.335Z,44.01
2023-06-26T08:58:40.050Z,43.84
2023-06-26T09:01:15.194Z,42.85
2023-06-26T09:03:47.696Z,41.88
2023-06-26T09:06:20.360Z,41.13
2023-06-26T09:08:52.682Z,41.70
2023-06-26T09:11:26.800Z,41.35
2023-06-26T09:13:59.758Z,42.18
2023-06-26T09:16:31.992Z,42.01
2023-06-26T09:19:04.234Z,41.19
2023-06-26T09:21:36.405Z,40.46
2023-06-26T09:24:11.756Z,40.29
2023-06-26T09:26:44.618Z,41.53
2023-06-26T09:29:17.853Z,40.06
2023-06-26T09:31:50.236Z,41.34
2023-06-26T09:34:23.147Z,40.92
2023-06-26T09:36:57.859Z,39.94
2023-06-26T09:39:32.524Z,37.40
2023-06-26T09:42:07.482Z,37.52
2023-06-26T09:44:45.631Z,37.98
2023-06-26T09:47:23.331Z,37.60
2023-06-26T09:49:56.326Z,37.45
2023-06-26T09:52:30.908Z,36.76
2023-06-26T09:55:16.765Z,37.33
2023-06-26T09:57:50.256Z,36.94
2023-06-26T10:00:23.392Z,36.66
2023-06-26T10:02:56.249Z,35.68
2023-06-26T10:05:29.247Z,35.15
2023-06-26T10:08:04.737Z,36.14
2023-06-26T10:10:39.618Z,36.57
2023-06-26T10:13:23.003Z,37.08
2023-06-26T10:15:56.232Z,36.77
2023-06-26T10:18:29.955Z,37.91
2023-06-26T10:21:05.863Z,37.79
2023-06-26T10:23:39.303Z,36.95
2023-06-26T10:26:13.848Z,36.72
2023-06-26T10:28:49.943Z,36.75
2023-06-26T10:31:25.475Z,36.33
2023-06-26T10:33:58.693Z,34.25
2023-06-26T10:36:34.128Z,33.78
2023-06-26T10:39:09.004Z,33.60
2023-06-26T10:41:53.103Z,33.44
2023-06-26T10:44:45.136Z,33.15
2023-06-26T10:47:33.684Z,32.28
2023-06-26T10:50:25.381Z,32.93
2023-06-26T10:53:26.627Z,33.14
2023-06-26T10:56:06.415Z,32.00
2023-06-26T10:58:49.452Z,32.16
2023-06-26T11:01:25.281Z,31.80
2023-06-26T11:04:09.489Z,31.45
2023-06-26T11:06:43.061Z,31.62
2023-06-26T11:09:20.643Z,30.87
2023-06-26T11:12:06.394Z,31.98
2023-06-26T11:14:39.565Z,31.24
2023-06-26T11:17:16.100Z,31.21
2023-06-26T11:19:49.550Z,30.64
2023-06-26T11:22:22.837Z,30.31
2023-06-26T11:24:57.306Z,30.27
2023-06-26T11:27:35.475Z,30.15
2023-06-26T11:30:09.596Z,29.25
2023-06-26T11:32:42.608Z,29.92
2023-06-26T11:35:14.892Z,28.41
2023-06-26T11:37:47.105Z,28.84
2023-06-26T11:40:28.038Z,28.20
2023-06-26T11:43:03.006Z,28.87
2023-06-26T11:45:36.929Z,28.74
2023-06-26T11:48:09.885Z,28.08
2023-06-26T11:50:44.150Z,27.13
2023-06-26T11:53:19.306Z,27.20
2023-06-26T11:55:52.061Z,27.28
2023-06-26T11:58:24.223Z,26.98
2023-06-26T12:00:57.124Z,26.49
2023-06-26T12:03:29.522Z,26.38
2023-06-26T12:06:04.793Z,26.11
2023-06-26T12:08:37.399Z,26.52
2023-06-26T12:11:09.895Z,27.60
2023-06-26T12:13:46.155Z,26.96
2023-06-26T12:16:20.879Z,26.71
2023-06-26T12:18:53.446Z,25.48
2023-06-26T12:21:53.746Z,26.79
2023-06-26T12:24:27.149Z,26.75
2023-06-26T12:26:59.495Z,26.72
2023-06-26T12:29:36.541Z,26.10
2023-06-26T12:32:13.083Z,26.03
2023-06-26T12:34:49.294Z,25.15
2023-06-26T12:37:21.594Z,25.56
2023-06-26T12:39:55.140Z,25.71
2023-06-26T12:42:28.897Z,25.05
2023-06-26T12:45:01.273Z,25.43
2023-06-26T12:47:34.942Z,25.25
2023-06-26T12:50:10.321Z,25.54
2023-06-26T12:52:42.486Z,24.79
2023-06-26T12:55:14.825Z,24.51
2023-06-26T12:57:47.439Z,24.48
2023-06-26T13:00:21.409Z,25.90
2023-06-26T13:02:53.686Z,25.78
2023-06-26T13:05:26.830Z,25.38
2023-06-26T13:07:59.955Z,25.50
2023-06-26T13:10:32.125Z,24.61
2023-06-26T13:13:04.697Z,25.04
2023-06-26T13:15:36.874Z,25.22
2023-06-26T13:18:09.126Z,24.92
2023-06-26T13:20:41.602Z,24.60
2023-06-26T13:23:14.084Z,24.35
2023-06-26T13:25:46.168Z,24.71
2023-06-26T13:28:18.476Z,24.19
2023-06-26T13:30:51.288Z,24.86
2023-06-26T13:33:26.794Z,25.25
2023-06-26T13:35:59.090Z,24.46
2023-06-26T13:38:31.201Z,24.70
2023-06-26T13:41:04.081Z,24.06
2023-06-26T13:43:36.318Z,23.27
2023-06-26T13:46:09.242Z,24.20
2023-06-26T13:48:41.483Z,24.14
2023-06-26T13:51:13.998Z,23.23
2023-06-26T13:53:46.357Z,23.26
2023-06-26T13:56:18.604Z,23.43
2023-06-26T13:58:51.156Z,22.99
2023-06-26T14:01:24.682Z,21.95
2023-06-26T14:03:56.928Z,22.14
2023-06-26T14:06:29.113Z,22.31
2023-06-26T14:09:01.795Z,22.78
2023-06-26T14:11:35.130Z,22.77
2023-06-26T14:14:07.410Z,22.47
2023-06-26T14:16:41.618Z,22.44
2023-06-26T14:19:15.785Z,22.09
2023-06-26T14:21:48.006Z,22.90
2023-06-26T14:24:20.426Z,22.46
2023-06-26T14:26:52.595Z,24.11
2023-06-26T14:29:24.671Z,23.88
2023-06-26T14:31:56.955Z,23.83
2023-06-26T14:34:29.235Z,23.54
2023-06-26T14:37:02.150Z,24.09
2023-06-26T14:39:34.238Z,23.80
2023-06-26T14:42:07.918Z,23.88
2023-06-26T14:44:40.728Z,23.81
2023-06-26T14:47:13.322Z,23.76
2023-06-26T14:49:45.692Z,24.89
2023-06-26T14:52:17.909Z,23.80
2023-06-26T14:54:50.024Z,23.21
2023-06-26T14:57:22.227Z,22.67
2023-06-26T14:59:54.356Z,22.61
2023-06-26T15:02:26.546Z,23.52
2023-06-26T15:04:58.871Z,23.90
2023-06-26T15:07:31.254Z,23.79
2023-06-26T15:10:03.579Z,24.65
2023-06-26T15:12:35.709Z,24.22
2023-06-26T15:15:09.671Z,24.72
2023-06-26T15:17:42.021Z,24.85
2023-06-26T15:20:14.568Z,24.99
2023-06-26T15:22:46.768Z,25.81
2023-06-26T15:25:19.012Z,25.71
2023-06-26T15:27:51.508Z,25.56
2023-06-26T15:30:23.695Z,26.04
2023-06-26T15:32:55.976Z,26.38
2023-06-26T15:35:29.630Z,26.04
2023-06-26T15:38:01.833Z,26.62
2023-06-26T15:40:34.167Z,27.15
2023-06-26T15:43:06.305Z,28.11
2023-06-26T15:45:38.482Z,28.31
2023-06-26T15:48:11.347Z,27.55
2023-06-26T15:50:43.581Z,27.91
2023-06-26T15:53:19.975Z,28.47
2023-06-26T15:55:52.120Z,29.35
2023-06-26T15:58:24.210Z,29.31
2023-06-26T16:00:56.608Z,29.27
2023-06-26T16:03:28.775Z,29.92
2023-06-26T16:06:00.915Z,30.56
2023-06-26T16:08:33.002Z,31.10
2023-06-26T16:11:06.577Z,32.14
2023-06-26T16:13:38.789Z,32.87
2023-06-26T16:16:12.624Z,32.87
2023-06-26T16:18:44.788Z,33.33
2023-06-26T16:21:17.392Z,34.16
2023-06-26T16:23:49.478Z,35.29
2023-06-26T16:26:21.562Z,35.18
2023-06-26T16:28:54.043Z,35.65
2023-06-26T16:31:26.837Z,35.83
2023-06-26T16:33:59.373Z,35.57
2023-06-26T16:36:31.581Z,36.69
2023-06-26T16:39:04.057Z,36.75
2023-06-26T16:41:36.147Z,38.80
2023-06-26T16:44:08.404Z,37.94
2023-06-26T16:46:40.623Z,38.33
2023-06-26T16:49:12.779Z,38.43
2023-06-26T16:51:45.109Z,38.25
2023-06-26T16:54:17.215Z,38.72
2023-06-26T16:56:49.368Z,39.06
2023-06-26T16:59:21.672Z,39.08
2023-06-26T17:01:55.182Z,39.16
2023-06-26T17:04:27.532Z,39.77
2023-06-26T17:07:00.681Z,39.90
2023-06-26T17:09:32.940Z,40.07
2023-06-26T17:12:05.527Z,40.58
2023-06-26T17:14:37.651Z,41.41
2023-06-26T17:17:09.906Z,41.42
2023-06-26T17:19:42.037Z,41.44
2023-06-26T17:22:14.321Z,41.83
2023-06-26T17:24:46.425Z,42.68
2023-06-26T17:27:22.116Z,42.25
2023-06-26T17:29:54.165Z,43.11
2023-06-26T17:32:26.576Z,42.66
2023-06-26T17:34:58.780Z,42.43
2023-06-26T17:37:30.890Z,42.30
2023-06-26T17:40:05.379Z,42.44
2023-06-26T17:42:43.520Z,42.83
2023-06-26T17:45:16.647Z,42.90
2023-06-26T17:47:48.943Z,43.39
2023-06-26T17:50:21.394Z,44.17
2023-06-26T17:52:53.690Z,45.13
2023-06-26T17:55:26.013Z,44.97
2023-06-26T17:57:58.104Z,45.96
2023-06-26T18:00:30.951Z,46.21
2023-06-26T18:03:03.799Z,45.72
2023-06-26T18:05:36.322Z,46.05
2023-06-26T18:08:08.606Z,46.26
2023-06-26T18:10:40.939Z,46.83
2023-06-26T18:13:13.349Z,47.57
2023-06-26T18:15:45.697Z,47.77
2023-06-26T18:18:18.056Z,47.85
2023-06-26T18:20:50.318Z,48.52
2023-06-26T18:23:22.456Z,49.37
2023-06-26T18:25:54.540Z,49.61
2023-06-26T18:28:28.312Z,50.35
2023-06-26T18:31:00.746Z,49.96
2023-06-26T18:33:32.942Z,50.23
2023-06-26T18:36:07.270Z,50.26
2023-06-26T18:38:39.555Z,50.29
2023-06-26T18:41:11.816Z,51.28
2023-06-26T18:43:46.731Z,51.03
2023-06-26T18:46:19.019Z,50.80
2023-06-26T18:49:01.282Z,50.54
2023-06-26T18:51:34.018Z,51.35
2023-06-26T18:54:06.503Z,51.53
2023-06-26T18:56:38.688Z,51.20
2023-06-26T18:59:11.019Z,52.02
2023-06-26T19:01:43.471Z,51.92
2023-06-26T19:04:16.296Z,52.05
2023-06-26T19:06:48.997Z,52.99
2023-06-26T19:09:21.689Z,52.99
2023-06-26T19:11:53.870Z,52.97
2023-06-26T19:14:26.272Z,53.21
2023-06-26T19:16:58.485Z,53.58
2023-06-26T19:19:30.675Z,54.14
2023-06-26T19:22:02.850Z,54.30
2023-06-26T19:24:35.081Z,54.04
2023-06-26T19:27:07.541Z,54.46
2023-06-26T19:29:39.762Z,54.27
2023-06-26T19:32:13.668Z,54.27
2023-06-26T19:34:46.006Z,54.53
2023-06-26T19:37:18.300Z,55.00
2023-06-26T19:39:50.473Z,55.15
2023-06-26T19:42:22.654Z,55.38
2023-06-26T19:44:54.868Z,55.69
2023-06-26T19:47:27.129Z,56.83
2023-06-26T19:49:59.322Z,56.50
2023-06-26T19:52:31.428Z,57.03
2023-06-26T19:55:04.609Z,57.29
2023-06-26T19:57:36.949Z,57.12
2023-06-26T20:00:11.616Z,57.22
2023-06-26T20:02:43.927Z,56.86
2023-06-26T20:05:16.255Z,57.16
2023-06-26T20:07:48.529Z,56.88
2023-06-26T20:10:20.895Z,56.96
2023-06-26T20:12:53.081Z,57.30
2023-06-26T20:15:25.201Z,58.15
2023-06-26T20:17:57.666Z,58.82
2023-06-26T20:20:29.786Z,58.07
2023-06-26T20:23:02.783Z,57.81
2023-06-26T20:25:35.239Z,58.05
2023-06-26T20:28:07.632Z,58.06
2023-06-26T20:30:39.834Z,58.18
2023-06-26T20:33:12.153Z,58.28
2023-06-26T20:35:44.394Z,59.33
2023-06-26T20:38:16.483Z,59.65
2023-06-26T20:40:49.540Z,60.19
2023-06-26T20:43:22.526Z,59.83
2023-06-26T20:45:55.698Z,61.06
2023-06-26T20:48:29.118Z,60.50
2023-06-26T20:51:02.169Z,60.74
2023-06-26T20:53:35.135Z,61.70
2023-06-26T20:56:08.588Z,60.54
2023-06-26T20:58:40.702Z,60.99
2023-06-26T21:01:12.996Z,61.91
2023-06-26T21:03:45.223Z,62.22
2023-06-26T21:06:17.364Z,61.02
2023-06-26T21:08:49.596Z,62.36
2023-06-26T21:11:22.017Z,62.60
2023-06-26T21:13:54.191Z,62.59
2023-06-26T21:16:26.368Z,62.91
2023-06-26T21:18:58.417Z,62.42
2023-06-26T21:21:30.658Z,63.05
2023-06-26T21:24:03.731Z,62.67
2023-06-26T21:26:35.853Z,61.90
2023-06-26T21:29:08.083Z,62.06
2023-06-26T21:31:40.148Z,61.92
2023-06-26T21:34:12.557Z,62.26
2023-06-26T21:36:44.697Z,62.25
2023-06-26T21:39:16.725Z,62.67
2023-06-26T21:41:48.772Z,63.04
2023-06-26T21:44:20.930Z,62.28
2023-06-26T21:46:53.160Z,62.12
2023-06-26T21:49:25.363Z,62.24
2023-06-26T21:51:57.456Z,62.91
2023-06-26T21:54:29.502Z,63.28
2023-06-26T21:57:01.576Z,62.84
2023-06-26T21:59:33.771Z,62.46
2023-06-26T22:02:06.120Z,62.48
2023-06-26T22:04:38.232Z,62.40
2023-06-26T22:07:10.570Z,62.05
2023-06-26T22:09:43.023Z,62.81
2023-06-26T22:12:15.308Z,63.75
2023-06-26T22:14:47.522Z,66.46
2023-06-26T22:17:19.729Z,68.04
2023-06-26T22:19:51.897Z,68.67
2023-06-26T22:22:24.124Z,71.80
2023-06-26T22:24:56.889Z,69.89
2023-06-26T22:27:29.021Z,71.17
2023-06-26T22:30:01.500Z,72.26
2023-06-26T22:32:33.685Z,72.76
2023-06-26T22:35:07.114Z,71.93
2023-06-26T22:37:39.291Z,72.32
2023-06-26T22:40:13.442Z,72.68
2023-06-26T22:42:45.757Z,72.87
2023-06-26T22:45:18.010Z,73.53
2023-06-26T22:47:50.352Z,73.29
2023-06-26T22:50:22.478Z,77.77
2023-06-26T22:52:55.118Z,77.32
2023-06-26T22:55:27.230Z,75.90
2023-06-26T22:57:59.272Z,78.21
2023-06-26T23:00:31.294Z,76.73
2023-06-26T23:03:03.359Z,78.00
2023-06-26T23:05:38.380Z,79.99
2023-06-26T23:08:10.906Z,79.94
2023-06-26T23:10:43.476Z,80.66
2023-06-26T23:13:15.828Z,81.92
2023-06-26T23:15:48.215Z,82.64
2023-06-26T23:18:20.416Z,81.73
2023-06-26T23:20:53.072Z,80.91
2023-06-26T23:23:26.110Z,83.30
2023-06-26T23:26:01.382Z,83.49
2023-06-26T23:28:33.663Z,82.02
2023-06-26T23:31:06.793Z,82.33
2023-06-26T23:33:41.846Z,83.32
2023-06-26T23:36:14.061Z,82.04
2023-06-26T23:38:46.439Z,81.68
2023-06-26T23:41:18.810Z,82.61
2023-06-26T23:43:51.006Z,82.65
2023-06-26T23:46:23.186Z,83.47
2023-06-26T23:48:55.661Z,82.73
2023-06-26T23:51:27.845Z,82.18
2023-06-26T23:54:00.053Z,83.55
2023-06-26T23:56:32.872Z,83.82
2023-06-26T23:59:05.565Z,83.29
